Time;durP1;ratioP1;P1;durP2;ratioP2;P2;SDS_P1;SDS_P2;PMS_P1;PMS_P2;Temp;Humidity;BMP_temperature;BMP_pressure;BME280_temperature;BME280_humidity;BME280_pressure;Samples;Min_cycle;Max_cycle;Signal;HPM_P1;HPM_P2
2022/01/02 00:02:42;;;;;;;2.17;1.90;;;;;;;-4.02;69.63;98577.53;4870799;29;20174;-78
2022/01/02 00:05:28;;;;;;;3.83;2.45;;;;;;;-3.98;69.52;98567.03;4870753;29;20050;-77
2022/01/02 00:08:11;;;;;;;2.58;2.17;;;;;;;-3.88;70.38;98569.31;4866420;29;20599;-79
2022/01/02 00:10:58;;;;;;;3.13;2.22;;;;;;;-3.81;70.23;98576.03;4843098;29;20046;-76
2022/01/02 00:13:47;;;;;;;4.00;2.03;;;;;;;-3.82;70.45;98570.88;4859884;29;20059;-76
2022/01/02 00:16:30;;;;;;;4.18;2.22;;;;;;;-3.81;69.50;98588.19;4873549;29;20094;-76
2022/01/02 00:19:27;;;;;;;3.22;1.48;;;;;;;-3.83;69.46;98590.84;4861584;29;20081;-78
2022/01/02 00:22:16;;;;;;;5.47;2.42;;;;;;;-3.91;69.53;98577.22;4857966;29;20534;-72
2022/01/02 00:25:11;;;;;;;2.50;1.92;;;;;;;-3.98;69.31;98586.13;4874191;29;20054;-76
2022/01/02 00:27:55;;;;;;;2.78;2.00;;;;;;;-4.10;69.73;98583.88;4887000;29;20466;-76
2022/01/02 00:30:40;;;;;;;2.83;2.05;;;;;;;-4.19;69.15;98576.34;4901375;29;20423;-76
2022/01/02 00:33:25;;;;;;;3.17;2.00;;;;;;;-4.24;69.63;98584.28;4886835;29;20047;-76
2022/01/02 00:36:08;;;;;;;5.03;2.75;;;;;;;-4.31;69.43;98598.38;4886630;29;20053;-78
2022/01/02 00:38:52;;;;;;;5.05;3.08;;;;;;;-4.38;68.94;98604.63;4884416;29;20142;-76
2022/01/02 00:41:43;;;;;;;3.25;1.60;;;;;;;-4.35;70.04;98607.16;4874063;29;20190;-76
2022/01/02 00:44:44;;;;;;;4.30;2.50;;;;;;;-4.31;70.61;98616.59;4886876;29;20164;-79
2022/01/02 00:47:38;;;;;;;3.00;2.25;;;;;;;-4.31;70.37;98623.53;4873460;29;20091;-75
2022/01/02 00:50:29;;;;;;;4.00;2.30;;;;;;;-4.40;70.51;98616.81;4901360;29;20118;-75
2022/01/02 00:53:17;;;;;;;5.28;2.80;;;;;;;-4.44;70.86;98621.28;4886769;29;20541;-74
2022/01/02 00:56:02;;;;;;;4.35;2.28;;;;;;;-4.47;70.63;98612.69;4886654;29;20050;-77
2022/01/02 00:58:51;;;;;;;5.57;3.00;;;;;;;-4.44;71.16;98613.47;4886386;29;20046;-77
2022/01/02 01:01:36;;;;;;;4.00;2.15;;;;;;;-4.47;70.86;98610.09;4886393;29;20050;-76
2022/01/02 01:04:21;;;;;;;;;;;;;;;-4.41;71.04;98610.78;4872763;29;20051;-79
2022/01/02 01:07:05;;;;;;;4.03;2.83;;;;;;;-4.57;70.63;98622.50;4886528;29;20125;-73
2022/01/02 01:09:49;;;;;;;;;;;;;;;-4.74;70.58;98622.13;4871633;29;22034;-71
2022/01/02 01:12:32;;;;;;;3.40;2.17;;;;;;;-4.84;70.92;98626.69;4901356;29;20007;-75
2022/01/02 01:15:16;;;;;;;3.67;2.45;;;;;;;-4.84;70.48;98628.41;4886540;29;20050;-79
2022/01/02 01:18:01;;;;;;;5.05;3.33;;;;;;;-4.90;72.69;98626.84;4885802;29;20525;-80
2022/01/02 01:20:50;;;;;;;5.32;3.50;;;;;;;-4.84;73.22;98631.03;4900379;29;20873;-75
2022/01/02 01:23:34;;;;;;;2.92;2.13;;;;;;;-4.81;72.83;98649.16;4885378;29;20522;-72
2022/01/02 01:26:19;;;;;;;3.75;2.63;;;;;;;-4.85;73.38;98652.72;4886806;29;20051;-75
2022/01/02 01:29:03;;;;;;;14.23;2.77;;;;;;;-4.84;74.25;98650.06;4886925;29;20418;-75
2022/01/02 01:31:47;;;;;;;3.25;2.60;;;;;;;-4.87;74.02;98655.38;4899589;29;20083;-78
2022/01/02 01:34:31;;;;;;;3.75;2.78;;;;;;;-4.85;74.24;98643.16;4884966;29;20072;-76
2022/01/02 01:37:14;;;;;;;3.50;2.23;;;;;;;-4.81;73.41;98655.19;4886778;29;20107;-74
2022/01/02 01:39:59;;;;;;;3.92;2.80;;;;;;;-4.89;72.35;98664.09;4885438;29;21049;-76
2022/01/02 01:42:56;;;;;;;3.45;2.65;;;;;;;-4.81;72.51;98660.41;4885998;29;20095;-74
2022/01/02 01:45:40;;;;;;;3.47;2.80;;;;;;;-4.78;72.43;98662.06;4873164;29;20050;-74
2022/01/02 01:48:23;;;;;;;4.20;2.67;;;;;;;-4.85;71.95;98658.75;4885925;29;20175;-73
2022/01/02 01:51:07;;;;;;;3.47;2.83;;;;;;;-4.88;71.05;98656.25;4886134;29;20100;-77
2022/01/02 01:53:51;;;;;;;3.17;2.15;;;;;;;-4.91;70.59;98660.69;4886726;29;20595;-79
2022/01/02 01:56:35;;;;;;;5.40;3.15;;;;;;;-4.87;70.88;98665.78;4872307;29;20055;-75
2022/01/02 01:59:21;;;;;;;5.32;2.50;;;;;;;-4.95;70.39;98659.88;4885364;29;20047;-73
2022/01/02 02:02:05;;;;;;;3.10;2.22;;;;;;;-4.94;70.17;98660.75;4873174;29;20051;-74
2022/01/02 02:04:49;;;;;;;5.95;2.92;;;;;;;-4.90;70.42;98654.59;4872014;29;20049;-78
2022/01/02 02:07:40;;;;;;;2.63;2.28;;;;;;;-4.97;70.29;98659.09;4885387;29;20835;-74
2022/01/02 02:10:35;;;;;;;4.03;2.97;;;;;;;-4.98;70.83;98660.00;4882199;29;20051;-77
2022/01/02 02:13:20;;;;;;;3.38;2.15;;;;;;;-4.92;70.88;98672.81;4885587;29;20102;-76
2022/01/02 02:16:06;;;;;;;4.25;3.05;;;;;;;-5.06;70.33;98669.69;4874247;29;20048;-71
2022/01/02 02:18:50;;;;;;;2.65;2.00;;;;;;;-5.04;70.94;98682.66;4887739;29;20055;-75
2022/01/02 02:21:37;;;;;;;2.28;2.03;;;;;;;-4.96;70.98;98670.31;4887840;29;20115;-74
2022/01/02 02:24:22;;;;;;;3.53;2.42;;;;;;;-5.03;70.65;98698.22;4863560;29;20078;-78
2022/01/02 02:27:06;;;;;;;3.15;2.85;;;;;;;-5.16;71.26;98682.06;4865998;29;20067;-76
2022/01/02 02:29:49;;;;;;;3.17;1.90;;;;;;;-5.09;71.34;98684.53;4889751;29;20055;-80
2022/01/02 02:32:37;;;;;;;3.72;3.08;;;;;;;-5.26;71.81;98675.38;4887914;29;20130;-79
2022/01/02 02:35:20;;;;;;;4.28;2.90;;;;;;;-5.25;71.92;98689.22;4887929;29;20051;-77
2022/01/02 02:38:05;;;;;;;2.95;2.65;;;;;;;-5.18;72.07;98694.22;4902024;29;20062;-77
2022/01/02 02:40:48;;;;;;;;;;;;;;;-5.03;72.09;98695.63;4888309;29;20046;-77
2022/01/02 02:49:29;;;;;;;2.60;2.22;;;;;;;-5.13;71.82;98701.94;4888850;29;20054;-77
2022/01/02 02:52:37;;;;;;;3.55;2.65;;;;;;;-5.13;71.28;98718.38;4902910;29;20127;-75
2022/01/02 02:55:15;;;;;;;3.97;2.80;;;;;;;-5.16;71.39;98714.97;4888883;29;20054;-77
2022/01/02 02:58:16;;;;;;;3.95;2.58;;;;;;;-5.30;71.99;98717.88;4902888;29;20090;-75
2022/01/02 03:01:02;;;;;;;3.78;2.35;;;;;;;-5.30;73.05;98728.28;4887555;29;20130;-65
2022/01/02 03:03:46;;;;;;;2.85;2.17;;;;;;;-5.22;72.83;98728.13;4900788;29;20517;-66
2022/01/02 03:06:29;;;;;;;4.65;2.53;;;;;;;-5.19;73.03;98735.84;4878073;29;20455;-65
2022/01/02 03:09:16;;;;;;;2.58;2.08;;;;;;;-5.13;73.02;98739.16;4885614;29;20051;-65
2022/01/02 03:11:59;;;;;;;3.28;2.42;;;;;;;-5.17;72.78;98734.91;4877775;29;20834;-65
2022/01/02 03:14:43;;;;;;;3.38;2.33;;;;;;;-5.13;72.95;98757.34;4853380;29;20148;-71
2022/01/02 03:17:27;;;;;;;5.25;2.33;;;;;;;-5.34;72.43;98759.56;4849570;29;20054;-68
2022/01/02 03:20:11;;;;;;;3.83;2.13;;;;;;;-5.35;72.61;98765.66;4848623;29;20054;-71
2022/01/02 03:22:54;;;;;;;4.82;3.05;;;;;;;-5.33;72.17;98758.69;4849093;29;20151;-66
2022/01/02 03:25:37;;;;;;;2.85;2.20;;;;;;;-5.36;72.85;98763.94;4868300;29;20581;-68
2022/01/02 03:28:21;;;;;;;6.47;2.63;;;;;;;-5.38;72.46;98776.09;4872736;29;20091;-73
2022/01/02 03:31:05;;;;;;;6.33;2.37;;;;;;;-5.54;71.45;98778.19;4884411;29;20065;-69
2022/01/02 03:33:51;;;;;;;4.63;2.88;;;;;;;-5.57;71.39;98771.31;4879088;29;20109;-68
2022/01/02 03:36:34;;;;;;;5.53;3.25;;;;;;;-5.63;71.41;98775.75;4889533;29;20043;-68
2022/01/02 03:39:18;;;;;;;3.13;2.38;;;;;;;-5.55;70.92;98785.13;4877185;29;20111;-68
2022/01/02 03:42:01;;;;;;;3.50;2.25;;;;;;;-5.62;71.43;98793.91;4886355;29;20035;-67
2022/01/02 03:44:46;;;;;;;3.38;2.13;;;;;;;-5.54;71.93;98786.84;4877370;29;20648;-67
2022/01/02 03:47:29;;;;;;;3.08;2.30;;;;;;;-5.55;71.85;98781.66;4871918;29;20129;-67
2022/01/02 03:50:15;;;;;;;2.55;1.83;;;;;;;-5.61;71.07;98789.56;4870612;29;20522;-68
2022/01/02 03:52:59;;;;;;;3.35;2.10;;;;;;;-5.71;70.65;98788.03;4883811;29;20055;-68
2022/01/02 03:55:42;;;;;;;2.95;2.17;;;;;;;-5.76;70.93;98798.53;4888108;29;20058;-67
2022/01/02 03:58:26;;;;;;;6.43;2.53;;;;;;;-5.85;70.56;98809.06;4894855;29;20415;-72
2022/01/02 04:01:09;;;;;;;2.15;1.67;;;;;;;-5.90;70.74;98797.97;4897676;29;20071;-72
2022/01/02 04:03:54;;;;;;;2.35;1.55;;;;;;;-5.92;71.06;98810.13;4890203;29;20075;-71
2022/01/02 04:06:38;;;;;;;2.00;1.75;;;;;;;-5.94;70.58;98797.16;4905539;29;20086;-72
2022/01/02 04:09:22;;;;;;;3.13;1.77;;;;;;;-5.97;70.70;98809.34;4876448;29;20127;-72
2022/01/02 04:12:06;;;;;;;2.63;1.80;;;;;;;-6.09;71.00;98809.56;4872463;29;20046;-72
2022/01/02 04:14:50;;;;;;;5.93;2.08;;;;;;;-6.15;69.91;98804.50;4872917;29;20067;-72
2022/01/02 04:17:34;;;;;;;2.85;1.92;;;;;;;-6.18;70.67;98815.78;4860383;29;20103;-73
2022/01/02 11:23:58;;;;;;;3.15;1.63;;;;;;;-5.83;62.88;99053.00;5573997;23;20059;-71
2022/01/02 11:26:46;;;;;;;3.03;1.67;;;;;;;-5.73;63.35;99059.78;4895358;29;20078;-72
2022/01/02 11:29:11;;;;;;;3.60;1.77;;;;;;;-5.78;63.43;99057.28;4874366;29;20055;-71
2022/01/02 11:31:40;;;;;;;1.60;1.50;;;;;;;-5.76;63.32;99046.88;4889359;29;20047;-71
2022/01/02 11:34:27;;;;;;;5.05;1.88;;;;;;;-5.77;63.03;99048.59;4872868;29;20083;-72
2022/01/02 11:37:13;;;;;;;4.70;1.77;;;;;;;-5.78;63.33;99048.63;4874410;29;20071;-71
2022/01/02 11:39:53;;;;;;;3.35;2.30;;;;;;;-5.88;62.63;99046.19;4891539;29;20059;-72
2022/01/02 11:42:38;;;;;;;3.78;2.03;;;;;;;-5.78;63.60;99041.69;4856643;29;20036;-71
2022/01/02 11:45:05;;;;;;;4.57;2.58;;;;;;;-5.92;62.80;99047.13;4893896;29;20035;-72
2022/01/02 11:47:46;;;;;;;2.42;1.77;;;;;;;-5.95;63.70;99049.75;4889898;29;20050;-73
2022/01/02 11:50:30;;;;;;;3.80;1.92;;;;;;;-6.10;63.00;99038.78;4890176;29;20111;-72
2022/01/02 11:53:10;;;;;;;3.22;1.95;;;;;;;-5.94;63.02;99061.00;4901119;29;20475;-72
2022/01/02 11:55:35;;;;;;;3.55;2.75;;;;;;;-5.99;62.88;99062.81;4899845;29;20039;-71
2022/01/02 11:58:00;;;;;;;3.38;2.08;;;;;;;-5.99;63.41;99058.50;4861872;29;20490;-71
2022/01/02 12:00:45;;;;;;;4.35;2.20;;;;;;;-5.84;63.76;99062.53;4858691;29;20395;-73
2022/01/02 12:03:40;;;;;;;4.35;1.83;;;;;;;-5.89;62.87;99064.41;4887501;29;20459;-74
2022/01/02 12:06:23;;;;;;;7.18;2.55;;;;;;;-6.02;62.99;99070.63;4888861;29;20042;-71
2022/01/02 12:08:53;;;;;;;8.30;2.63;;;;;;;-6.13;62.72;99067.34;4874416;29;20502;-74
2022/01/02 12:11:45;;;;;;;3.72;1.90;;;;;;;-5.97;63.23;99077.47;4882503;29;20491;-72
2022/01/02 12:14:20;;;;;;;6.78;2.45;;;;;;;-6.09;63.10;99081.97;4892294;29;20055;-72
2022/01/02 12:17:01;;;;;;;2.92;2.42;;;;;;;-6.04;63.09;99075.00;4887424;29;20384;-73
2022/01/02 12:19:27;;;;;;;1.92;1.58;;;;;;;-5.99;63.62;99073.19;4888152;29;20519;-71
2022/01/02 12:22:13;;;;;;;4.65;2.08;;;;;;;-5.96;63.59;99071.41;4887510;29;20047;-72
2022/01/02 12:24:39;;;;;;;3.38;2.15;;;;;;;-5.95;63.23;99069.66;4842874;29;20151;-77
2022/01/02 12:27:15;;;;;;;3.63;2.20;;;;;;;-6.08;62.88;99074.16;4867060;29;20060;-72
2022/01/02 12:29:40;;;;;;;4.88;2.45;;;;;;;-6.14;63.46;99079.44;4869485;29;20059;-71
2022/01/02 12:32:07;;;;;;;4.55;2.97;;;;;;;-6.25;63.40;99083.94;4870749;29;20036;-71
2022/01/02 12:34:33;;;;;;;3.30;1.80;;;;;;;-6.12;63.69;99090.66;4867543;29;20094;-72
2022/01/02 12:36:58;;;;;;;3.97;3.05;;;;;;;-6.19;63.71;99085.56;4880546;29;20048;-72
2022/01/02 12:39:35;;;;;;;2.70;2.22;;;;;;;-6.13;63.82;99095.88;4878805;29;20051;-75
2022/01/02 12:42:11;;;;;;;3.05;2.45;;;;;;;-6.07;64.18;99100.97;4878942;29;20044;-74
2022/01/02 12:44:36;;;;;;;6.07;2.83;;;;;;;-6.13;63.75;99088.09;4880140;29;20047;-72
2022/01/02 12:47:04;;;;;;;4.63;3.30;;;;;;;-6.20;63.98;99095.09;4869325;29;20035;-68
2022/01/02 12:49:37;;;;;;;3.63;2.40;;;;;;;-6.13;64.03;99098.47;4868794;29;20044;-68
2022/01/02 12:52:05;;;;;;;6.45;2.58;;;;;;;-6.12;64.32;99092.41;4865145;29;20055;-72
2022/01/02 12:54:35;;;;;;;3.85;2.78;;;;;;;-6.10;64.60;99107.09;4870271;29;20076;-70
2022/01/02 12:57:04;;;;;;;6.95;4.63;;;;;;;-6.34;64.56;99095.28;4869331;29;20046;-70
2022/01/02 12:59:30;;;;;;;5.80;2.20;;;;;;;-6.21;64.56;99105.50;4868564;29;20044;-67
2022/01/02 13:02:03;;;;;;;3.50;2.90;;;;;;;-6.26;64.37;99110.75;4873023;29;20063;-70
2022/01/02 13:04:29;;;;;;;3.40;2.10;;;;;;;-6.33;64.03;99115.16;4880319;29;20135;-71
2022/01/02 13:06:56;;;;;;;5.03;2.88;;;;;;;-6.25;65.07;99115.91;4879256;29;20052;-71
2022/01/02 13:09:37;;;;;;;4.50;2.72;;;;;;;-6.16;64.32;99111.47;4878710;29;20499;-69
2022/01/02 13:12:03;;;;;;;4.05;2.65;;;;;;;-6.15;64.33;99110.59;4863699;29;20044;-69
2022/01/02 13:14:42;;;;;;;2.33;2.08;;;;;;;-6.24;64.60;99103.81;4878806;29;20059;-69
2022/01/02 13:17:29;;;;;;;3.58;2.33;;;;;;;-6.26;64.98;99101.22;4878952;29;20040;-69
2022/01/02 13:19:56;;;;;;;4.78;3.00;;;;;;;-6.36;64.52;99094.44;4879721;29;20071;-70
2022/01/02 13:22:24;;;;;;;3.67;2.28;;;;;;;-6.29;65.32;99084.84;4881993;29;20059;-69
2022/01/02 13:24:53;;;;;;;2.65;1.83;;;;;;;-6.19;64.31;99086.44;4878689;29;20101;-68
2022/01/02 13:27:17;;;;;;;4.85;3.33;;;;;;;-6.18;64.53;99079.50;4879214;29;20048;-70
2022/01/02 13:29:54;;;;;;;3.10;2.10;;;;;;;-6.14;64.57;99081.19;4881860;29;20059;-71
2022/01/02 13:32:19;;;;;;;4.70;2.95;;;;;;;-6.26;64.93;99077.03;4881152;29;20077;-69
2022/01/02 13:34:56;;;;;;;5.10;2.75;;;;;;;-6.27;65.22;99081.34;4880301;29;20105;-68
2022/01/02 13:37:30;;;;;;;3.10;2.15;;;;;;;-6.07;65.21;99075.03;4879945;29;20051;-70
2022/01/02 13:39:55;;;;;;;3.42;2.50;;;;;;;-6.17;64.72;99073.44;4878859;29;20048;-69
2022/01/02 13:42:34;;;;;;;4.15;2.70;;;;;;;-6.14;65.04;99094.16;4878903;29;20051;-69
2022/01/02 13:45:10;;;;;;;4.57;3.35;;;;;;;-6.13;64.65;99075.97;4878311;29;20040;-69
2022/01/02 13:47:35;;;;;;;6.65;3.08;;;;;;;-6.17;64.82;99076.88;4880322;29;20449;-69
2022/01/02 13:50:00;;;;;;;4.00;2.58;;;;;;;-6.13;64.32;99062.16;4879431;29;20067;-70
2022/01/02 13:52:24;;;;;;;3.78;2.35;;;;;;;-6.05;64.83;99061.16;4878346;29;20087;-70
2022/01/02 13:54:50;;;;;;;6.82;2.92;;;;;;;-6.00;64.23;99067.16;4879274;29;20040;-70
2022/01/02 13:57:16;;;;;;;5.10;3.05;;;;;;;-5.98;64.04;99073.16;4878211;29;20150;-68
2022/01/02 13:59:41;;;;;;;6.30;3.03;;;;;;;-6.02;63.96;99070.63;4877902;29;20058;-70
2022/01/02 14:02:06;;;;;;;3.20;2.53;;;;;;;-6.02;63.80;99065.44;4879092;29;20483;-69
2022/01/02 14:04:54;;;;;;;3.72;2.10;;;;;;;-5.90;64.62;99068.72;4873785;29;20090;-70
2022/01/02 14:07:19;;;;;;;3.88;2.70;;;;;;;-5.99;63.79;99063.69;4859574;29;20036;-69
2022/01/02 14:09:52;;;;;;;4.95;2.15;;;;;;;-6.04;64.38;99062.88;4868920;29;20048;-72
2022/01/02 14:12:20;;;;;;;5.65;3.50;;;;;;;-6.10;64.67;99069.91;4879490;29;20047;-74
2022/01/02 14:14:50;;;;;;;6.00;4.00;;;;;;;-6.15;64.29;99061.31;4871925;29;20060;-70
2022/01/02 14:17:30;;;;;;;6.25;3.70;;;;;;;-6.33;64.80;99063.28;4867719;29;20036;-69
2022/01/02 14:19:55;;;;;;;3.75;2.60;;;;;;;-6.19;65.06;99059.63;4877312;29;20052;-70
2022/01/02 14:22:26;;;;;;;3.85;2.72;;;;;;;-6.10;65.31;99059.53;4882030;29;20907;-70
2022/01/02 14:24:52;;;;;;;6.70;4.05;;;;;;;-6.21;65.34;99071.78;4895094;29;20090;-70
2022/01/02 14:27:20;;;;;;;5.00;2.92;;;;;;;-6.25;64.82;99071.81;4901576;29;20106;-70
2022/01/02 14:29:45;;;;;;;8.88;3.22;;;;;;;-6.22;64.82;99064.88;4875220;29;20127;-69
2022/01/02 14:32:11;;;;;;;4.95;3.47;;;;;;;-6.17;65.38;99073.44;4888571;29;20135;-69
2022/01/02 14:34:36;;;;;;;3.05;2.40;;;;;;;-6.22;65.03;99072.66;4884245;29;20083;-69
2022/01/02 14:37:01;;;;;;;8.73;4.93;;;;;;;-6.20;65.39;99068.28;4858133;29;20078;-70
2022/01/02 14:39:26;;;;;;;6.50;4.25;;;;;;;-6.21;65.38;99072.66;4881327;29;20055;-70
2022/01/02 14:41:51;;;;;;;4.10;2.80;;;;;;;-6.14;64.69;99073.41;4862445;29;20056;-69
2022/01/02 14:44:16;;;;;;;5.00;3.30;;;;;;;-6.20;65.19;99066.53;4890746;29;20047;-70
2022/01/02 14:46:44;;;;;;;6.65;3.38;;;;;;;-6.09;65.01;99067.25;4861296;29;20047;-69
2022/01/02 14:49:10;;;;;;;4.50;2.80;;;;;;;-6.09;65.20;99061.22;4890290;29;20052;-69
2022/01/02 14:51:35;;;;;;;4.22;2.65;;;;;;;-6.19;65.38;99064.81;4890587;29;20036;-69
2022/01/02 14:54:01;;;;;;;4.95;2.83;;;;;;;-6.19;64.99;99068.25;4875139;29;20052;-71
2022/01/02 14:56:26;;;;;;;6.68;3.15;;;;;;;-6.17;65.20;99057.88;4889335;29;20043;-71
2022/01/02 14:58:50;;;;;;;7.47;2.38;;;;;;;-6.15;65.62;99059.56;4875160;29;20107;-69
2022/01/02 15:01:18;;;;;;;3.50;2.40;;;;;;;-6.19;65.67;99064.81;4875423;29;20043;-70
2022/01/02 15:03:43;;;;;;;5.35;3.03;;;;;;;-6.16;65.52;99059.59;4889830;29;20044;-70
2022/01/02 15:06:07;;;;;;;2.92;2.10;;;;;;;-6.20;65.74;99053.56;4891747;29;20035;-71
2022/01/02 15:08:32;;;;;;;5.43;3.15;;;;;;;-6.24;65.62;99050.19;4875784;29;20043;-70
2022/01/02 15:10:58;;;;;;;5.55;2.80;;;;;;;-6.28;66.19;99056.28;4874685;29;20402;-69
2022/01/02 15:13:26;;;;;;;4.63;3.08;;;;;;;-6.27;66.17;99059.75;4891562;29;20075;-70
2022/01/02 15:15:50;;;;;;;2.78;1.92;;;;;;;-6.22;66.81;99054.50;4889957;29;20055;-70
2022/01/02 15:18:15;;;;;;;4.47;3.22;;;;;;;-6.18;66.01;99057.00;4889899;29;20043;-70
2022/01/02 15:20:40;;;;;;;6.20;3.17;;;;;;;-6.33;66.51;99058.09;4871698;29;20051;-70
2022/01/02 15:23:05;;;;;;;4.75;2.90;;;;;;;-6.25;66.42;99056.25;4876183;29;20099;-71
2022/01/02 15:25:30;;;;;;;4.38;2.97;;;;;;;-6.20;66.50;99050.97;4889800;29;20052;-72
2022/01/02 15:27:55;;;;;;;4.45;2.97;;;;;;;-6.23;66.07;99058.84;4891433;29;20099;-69
2022/01/02 15:30:20;;;;;;;5.18;3.47;;;;;;;-6.31;65.84;99038.16;4856133;29;20503;-70
2022/01/02 15:32:45;;;;;;;5.40;3.03;;;;;;;-6.47;66.65;99044.44;4873004;29;20043;-69
2022/01/02 15:35:15;;;;;;;5.18;2.83;;;;;;;-6.44;67.07;99051.34;4889242;29;20046;-67
2022/01/02 15:37:39;;;;;;;3.80;2.63;;;;;;;-6.41;66.53;99046.94;4889468;29;20043;-68
2022/01/02 15:40:09;;;;;;;4.25;2.58;;;;;;;-6.33;66.38;99039.09;4873500;29;20044;-78
2022/01/02 15:42:34;;;;;;;7.13;3.10;;;;;;;-6.33;66.14;99047.72;4877804;29;20040;-79
2022/01/02 15:44:59;;;;;;;3.97;2.60;;;;;;;-6.21;66.57;99027.69;4892609;29;20047;-74
2022/01/02 15:47:23;;;;;;;4.38;2.70;;;;;;;-6.27;65.30;99039.84;4878254;29;20091;-78
2022/01/02 15:49:48;;;;;;;3.15;2.13;;;;;;;-6.21;65.27;99040.66;4863207;29;20050;-77
2022/01/02 15:52:13;;;;;;;4.40;2.70;;;;;;;-6.24;65.26;99042.41;4893595;29;20057;-75
2022/01/02 15:54:38;;;;;;;5.60;2.70;;;;;;;-6.24;65.34;99060.56;4875992;29;20055;-76
2022/01/02 15:57:03;;;;;;;5.97;2.33;;;;;;;-6.41;64.61;99046.94;4861693;29;20048;-75
2022/01/02 15:59:28;;;;;;;3.15;2.40;;;;;;;-6.38;64.90;99048.66;4876064;29;20127;-74
2022/01/02 16:01:53;;;;;;;2.92;1.90;;;;;;;-6.46;64.98;99046.16;4873548;29;20171;-71
2022/01/02 16:04:18;;;;;;;3.88;2.22;;;;;;;-6.50;65.32;99052.25;4896504;29;20087;-75
2022/01/02 16:06:43;;;;;;;6.45;3.40;;;;;;;-6.73;64.90;99041.31;4882789;29;20040;-68
2022/01/02 16:09:07;;;;;;;6.18;2.50;;;;;;;-6.56;65.08;99041.97;4848657;29;20046;-70
2022/01/02 16:11:32;;;;;;;4.45;2.80;;;;;;;-6.49;65.54;99040.16;4880859;29;20032;-69
2022/01/02 16:13:57;;;;;;;6.78;3.33;;;;;;;-6.56;64.97;99028.16;4857887;29;20122;-70
2022/01/02 16:16:21;;;;;;;4.88;2.72;;;;;;;-6.56;65.08;99033.34;4880097;29;20039;-71
2022/01/02 16:18:46;;;;;;;7.63;3.13;;;;;;;-6.65;65.00;99034.28;4863115;29;20056;-70
2022/01/02 16:21:11;;;;;;;3.58;2.38;;;;;;;-6.63;65.09;99027.38;4863813;29;20161;-70
2022/01/02 16:23:36;;;;;;;3.65;2.30;;;;;;;-6.61;64.63;99030.78;4880372;29;20044;-69
2022/01/02 16:26:01;;;;;;;3.22;1.90;;;;;;;-6.58;64.86;99029.91;4847772;29;20100;-69
2022/01/02 16:28:26;;;;;;;2.50;1.77;;;;;;;-6.60;64.08;99029.94;4880475;29;20418;-69
2022/01/02 16:30:51;;;;;;;2.97;2.33;;;;;;;-6.61;63.96;99031.66;4880237;29;20032;-69
2022/01/02 16:33:20;;;;;;;4.28;2.30;;;;;;;-6.57;63.85;99029.91;4863801;29;20058;-70
2022/01/02 16:35:48;;;;;;;7.22;2.03;;;;;;;-6.61;64.16;99034.25;4886820;29;20404;-68
2022/01/02 16:38:14;;;;;;;2.78;1.83;;;;;;;-6.55;64.49;99024.69;4890654;29;20130;-68
2022/01/02 16:40:39;;;;;;;2.40;2.20;;;;;;;-6.51;64.83;99026.34;4889211;29;20055;-71
2022/01/02 16:43:04;;;;;;;2.58;2.10;;;;;;;-6.52;64.60;99016.84;4887600;29;20422;-67
2022/01/02 16:45:29;;;;;;;4.13;2.25;;;;;;;-6.54;64.69;99014.28;4888097;29;20384;-68
2022/01/02 16:47:54;;;;;;;4.22;2.10;;;;;;;-6.50;64.21;99018.56;4894061;29;20085;-69
2022/01/02 16:50:19;;;;;;;4.20;2.53;;;;;;;-6.61;64.87;99023.03;4847193;29;20075;-68
2022/01/02 16:52:44;;;;;;;2.80;2.20;;;;;;;-6.64;64.47;99025.66;4887585;29;20134;-68
2022/01/02 16:55:09;;;;;;;4.80;2.60;;;;;;;-6.56;65.00;99020.38;4884360;29;20048;-69
2022/01/02 16:57:34;;;;;;;4.68;2.65;;;;;;;-6.65;64.57;99016.16;4887932;29;20140;-69
2022/01/02 17:00:00;;;;;;;6.65;2.45;;;;;;;-6.56;64.79;99010.00;4871808;29;20130;-68
2022/01/02 17:02:25;;;;;;;3.50;2.05;;;;;;;-6.55;64.24;99020.38;4889142;29;20095;-69
2022/01/02 17:04:52;;;;;;;3.97;1.85;;;;;;;-6.50;64.74;99018.56;4887810;29;20127;-69
2022/01/02 17:07:18;;;;;;;2.88;1.77;;;;;;;-6.52;64.61;99015.13;4888868;29;20047;-69
2022/01/02 17:09:43;;;;;;;5.20;2.95;;;;;;;-6.60;64.01;99027.34;4859093;29;20102;-68
2022/01/02 17:12:08;;;;;;;4.20;3.10;;;;;;;-6.57;64.41;99022.13;4887793;29;20047;-68
2022/01/02 17:14:33;;;;;;;3.05;2.60;;;;;;;-6.55;64.63;99022.97;4878425;29;20406;-68
2022/01/02 17:16:59;;;;;;;2.83;2.42;;;;;;;-6.56;64.42;99025.56;4888047;29;20422;-68
2022/01/02 17:19:24;;;;;;;3.33;2.55;;;;;;;-6.52;64.93;99015.13;4895473;29;20031;-71
2022/01/02 17:21:48;;;;;;;3.47;2.47;;;;;;;-6.52;65.39;99012.53;4882682;29;20058;-76
2022/01/02 17:24:13;;;;;;;9.00;2.80;;;;;;;-6.52;65.38;98989.19;4864146;29;20119;-72
2022/01/02 17:26:38;;;;;;;6.18;3.17;;;;;;;-6.50;64.96;98984.84;4881363;29;20060;-76
2022/01/02 17:29:02;;;;;;;2.83;2.13;;;;;;;-6.42;65.37;98985.59;4880779;29;20040;-78
2022/01/02 17:31:27;;;;;;;3.75;1.88;;;;;;;-6.40;64.75;98978.66;4881072;29;20044;-72
2022/01/02 17:33:52;;;;;;;4.50;3.00;;;;;;;-6.38;65.04;98971.72;4849065;29;20573;-78
2022/01/02 17:36:17;;;;;;;3.63;2.65;;;;;;;-6.33;65.15;98975.13;4849217;29;20047;-74
2022/01/02 17:38:42;;;;;;;9.63;4.65;;;;;;;-6.38;64.78;98976.91;4863925;29;20055;-76
2022/01/02 17:41:07;;;;;;;6.25;3.88;;;;;;;-6.34;64.87;98973.41;4863046;29;20048;-73
2022/01/02 17:43:32;;;;;;;9.30;5.18;;;;;;;-6.33;64.97;98971.66;4864821;29;20507;-76
2022/01/02 17:45:57;;;;;;;14.27;4.60;;;;;;;-6.33;65.19;98964.75;4865148;29;20047;-75
2022/01/02 17:48:22;;;;;;;16.08;5.05;;;;;;;-6.42;64.86;98969.19;4868907;29;20039;-76
2022/01/02 17:50:46;;;;;;;5.40;3.92;;;;;;;-6.34;64.79;98975.13;4852568;29;20040;-75
2022/01/02 17:53:11;;;;;;;8.48;4.63;;;;;;;-6.33;64.96;98975.13;4867761;29;20060;-74
2022/01/02 17:55:36;;;;;;;4.72;3.17;;;;;;;-6.43;65.39;98972.69;4867707;29;20050;-74
2022/01/02 17:58:01;;;;;;;8.20;4.40;;;;;;;-6.43;65.09;98972.69;4878378;29;20036;-73
2022/01/02 18:00:28;;;;;;;6.80;4.45;;;;;;;-6.43;65.35;98973.50;4874294;29;20044;-72
2022/01/02 18:02:52;;;;;;;6.47;4.43;;;;;;;-6.39;65.22;98974.31;4874856;29;20048;-71
2022/01/02 18:05:17;;;;;;;7.75;3.80;;;;;;;-6.39;64.86;98979.50;4856742;29;20050;-72
2022/01/02 18:07:42;;;;;;;5.15;3.72;;;;;;;-6.38;65.53;98982.09;4847748;29;20040;-71
2022/01/02 18:10:10;;;;;;;7.05;4.32;;;;;;;-6.38;65.54;98976.91;4871140;29;20496;-71
2022/01/02 18:12:38;;;;;;;5.03;3.20;;;;;;;-6.48;65.67;98975.31;4870479;29;20102;-71
2022/01/02 18:15:06;;;;;;;4.38;3.03;;;;;;;-6.39;65.47;98964.81;4870629;29;20375;-71
2022/01/02 18:17:33;;;;;;;7.40;3.67;;;;;;;-6.41;65.19;98966.56;4871092;29;20086;-71
2022/01/02 18:19:57;;;;;;;4.93;3.45;;;;;;;-6.32;65.71;98961.25;4874137;29;20044;-72
2022/01/02 18:22:22;;;;;;;4.28;3.15;;;;;;;-6.34;65.06;98972.53;4870797;29;20036;-72
2022/01/02 18:24:48;;;;;;;7.82;3.65;;;;;;;-6.35;65.10;98963.91;4872744;29;20057;-73
2022/01/02 18:27:13;;;;;;;6.53;3.58;;;;;;;-6.32;65.41;98955.22;4868572;29;20046;-72
2022/01/02 18:29:38;;;;;;;4.63;3.95;;;;;;;-6.39;65.08;98957.03;4872774;29;20832;-71
2022/01/02 18:32:03;;;;;;;6.53;3.88;;;;;;;-6.35;65.60;98957.84;4873087;29;20402;-72
2022/01/02 18:34:28;;;;;;;4.40;3.13;;;;;;;-6.38;65.36;98953.56;4858467;29;20059;-72
2022/01/02 18:36:56;;;;;;;5.65;3.33;;;;;;;-6.43;65.56;98962.31;4854952;29;20057;-72
2022/01/02 18:39:22;;;;;;;6.88;3.75;;;;;;;-6.42;65.11;98958.81;4847434;29;20048;-72
2022/01/02 18:41:48;;;;;;;5.88;3.70;;;;;;;-6.40;65.26;98952.72;4872348;29;20533;-70
2022/01/02 18:44:13;;;;;;;7.35;3.88;;;;;;;-6.49;65.94;98949.41;4857256;29;20095;-74
2022/01/02 18:46:38;;;;;;;3.05;2.70;;;;;;;-6.42;66.33;98959.66;4856401;29;20052;-74
2022/01/02 18:49:03;;;;;;;5.45;3.70;;;;;;;-6.37;65.82;98957.00;4875245;29;20050;-74
2022/01/02 18:51:31;;;;;;;5.32;3.25;;;;;;;-6.33;66.22;98959.56;4872599;29;20126;-78
2022/01/02 18:53:56;;;;;;;4.13;2.78;;;;;;;-6.30;65.96;98958.63;4873960;29;20048;-79
2022/01/02 18:56:22;;;;;;;3.60;2.60;;;;;;;-6.31;65.85;98955.19;4843850;29;20051;-79
2022/01/02 18:58:50;;;;;;;4.68;2.95;;;;;;;-6.34;65.18;98960.44;4876384;29;20132;-77
2022/01/02 19:01:15;;;;;;;6.22;4.03;;;;;;;-6.41;64.97;98953.59;4874114;29;20432;-77
2022/01/02 19:03:41;;;;;;;6.90;3.42;;;;;;;-6.47;65.79;98952.84;4876136;29;20490;-76
2022/01/02 19:06:06;;;;;;;4.05;3.00;;;;;;;-6.44;66.16;98945.88;4879369;29;20072;-77
2022/01/02 19:08:31;;;;;;;5.05;3.25;;;;;;;-6.38;66.08;98938.00;4883091;29;20100;-76
2022/01/02 19:10:56;;;;;;;6.80;3.65;;;;;;;-6.41;65.41;98932.84;4877997;29;20418;-77
2022/01/02 19:13:22;;;;;;;4.25;2.40;;;;;;;-6.41;65.44;98934.59;4880425;29;20052;-78
2022/01/02 19:15:47;;;;;;;6.20;3.72;;;;;;;-6.43;65.56;98931.19;4889467;29;20420;-77